Kilburn, United Kingdom
Current Conditions -  °F | °C
As of 12:20 AM on Thursday 27 Nov 2014 (Local Time) from EGNX Reporting Station
Moderate Fog Moderate Fog  
Wind Chill:   Ceiling: Unl
Heat Index:   Visibility: 0.12mi
Dew Point:   Wind: 0mph
Humidity: 100%   Direction: NA
Pressure: 29.74"   Gusts: NA
Location:  53.01°N, 1.44°W
Report Text: EGNX 270020Z 00000KT 0200 R27/0375 FG VV/// 07/07 Q1007
Loading
Personal Weather Stations






























Interactive Weather Map New forecast layout! Learn more

10-Day Weather Forecast

Advertisements
Track Severe Weather on mobile